Terminal Aerodrome Forecast
Issued by NWS

Home | Current Version | Previous Version | Text Only | Print | Product List | Glossary On
Versions: 1 2 3 4 5 6 7 8 9 10 11 12 13 14 15 16 17 18 19 20 21 22 23 24 25 26 27 28 29 30 31 32 33 34 35 36 37 38 39 40 41 42 43 44 45 46 47 48 49 50
000
FTUS46 KPQR 011959 AAA
TAFONP
TAF AMD
KONP 011959Z 0120/0218 21010G20KT P6SM SCT030 BKN050
     FM020300 21008KT 2SM -RA BR BKN015 OVC030
     FM021600 21004KT 4SM BR BKN025 OVC040=

USA.gov is the U.S. government's official web portal to all federal, state and local government web resources and services.